Time;durP1;ratioP1;P1;durP2;ratioP2;P2;SDS_P1;SDS_P2;PMS_P1;PMS_P2;Temp;Humidity;BMP_temperature;BMP_pressure;BME280_temperature;BME280_humidity;BME280_pressure;Samples;Min_cycle;Max_cycle;Signal;HPM_P1;HPM_P2
2024/04/21 00:01:09;;;;;;;0.10;0.10;;;;;;;;;;5106078;27;20361;-86
2024/04/21 00:03:35;;;;;;;0.10;0.10;;;;;;;;;;5097616;27;20006;-87
2024/04/21 00:06:01;;;;;;;0.10;0.10;;;5.30;99.90;;;;;;5093476;27;20001;-87
2024/04/21 00:08:27;;;;;;;0.10;0.10;;;;;;;;;;5099038;27;20013;-87
2024/04/21 00:10:52;;;;;;;0.10;0.10;;;;;;;;;;5087154;27;20025;-86
2024/04/21 00:13:19;;;;;;;0.00;0.00;;;;;;;;;;5111513;27;20414;-86
2024/04/21 00:15:45;;;;;;;0.10;0.10;;;;;;;;;;5094425;27;20337;-87
2024/04/21 00:18:11;;;;;;;0.00;0.00;;;;;;;;;;5093095;27;20097;-87
2024/04/21 00:20:36;;;;;;;0.10;0.10;;;5.30;99.90;;;;;;5093314;27;20356;-87
2024/04/21 00:23:03;;;;;;;0.10;0.10;;;;;;;;;;5085082;28;20014;-87
2024/04/21 00:25:29;;;;;;;0.08;0.08;;;;;;;;;;5100741;28;20007;-88
2024/04/21 00:27:55;;;;;;;0.10;0.10;;;;;;;;;;5098521;27;20006;-87
2024/04/21 00:30:20;;;;;;;0.00;0.00;;;5.30;99.90;;;;;;5088559;27;20058;-87
2024/04/21 00:32:46;;;;;;;0.10;0.10;;;5.40;99.90;;;;;;5099994;27;20019;-87
2024/04/21 00:35:11;;;;;;;0.00;0.00;;;;;;;;;;5099830;27;20010;-88
2024/04/21 00:37:37;;;;;;;0.00;0.00;;;4.90;99.90;;;;;;5115672;27;20590;-87
2024/04/21 00:40:03;;;;;;;0.10;0.10;;;;;;;;;;5096391;27;19998;-88
2024/04/21 00:42:29;;;;;;;0.10;0.10;;;;;;;;;;5083340;27;20011;-87
2024/04/21 00:44:55;;;;;;;0.10;0.10;;;;;;;;;;5100081;27;20009;-87
2024/04/21 00:47:21;;;;;;;0.10;0.10;;;;;;;;;;5109732;27;20001;-87
2024/04/21 00:49:47;;;;;;;0.10;0.10;;;4.50;99.90;;;;;;5088067;27;20090;-87
2024/04/21 00:52:13;;;;;;;0.00;0.00;;;;;;;;;;5092996;27;20007;-87
2024/04/21 00:54:39;;;;;;;0.10;0.10;;;4.40;99.90;;;;;;5098940;27;20003;-87
2024/04/21 00:57:05;;;;;;;0.00;0.00;;;;;;;;;;5093281;27;20006;-88
2024/04/21 00:59:32;;;;;;;0.10;0.10;;;4.50;99.90;;;;;;5093932;27;20021;-87
2024/04/21 01:01:58;;;;;;;0.10;0.10;;;;;;;;;;5105118;27;20021;-88
2024/04/21 01:04:25;;;;;;;0.03;0.03;;;;;;;;;;5112108;27;20002;-87
2024/04/21 01:06:51;;;;;;;0.00;0.00;;;;;;;;;;5091406;27;20005;-87
2024/04/21 01:09:17;;;;;;;0.10;0.10;;;;;;;;;;5092758;27;20021;-88
2024/04/21 01:11:49;;;;;;;0.00;0.00;;;4.10;99.90;;;;;;5103929;27;20002;-88
2024/04/21 01:14:15;;;;;;;0.00;0.00;;;;;;;;;;5099605;27;20348;-88
2024/04/21 01:16:41;;;;;;;0.00;0.00;;;;;;;;;;5090534;27;20010;-88
2024/04/21 01:19:06;;;;;;;0.00;0.00;;;3.80;99.90;;;;;;5097293;27;20049;-88
2024/04/21 01:21:32;;;;;;;0.03;0.03;;;3.70;99.90;;;;;;5088057;27;20010;-88
2024/04/21 01:23:58;;;;;;;0.10;0.10;;;;;;;;;;5098139;27;20034;-86
2024/04/21 01:26:25;;;;;;;0.10;0.10;;;;;;;;;;5083618;27;20015;-87
2024/04/21 01:28:51;;;;;;;0.10;0.10;;;;;;;;;;5122860;27;19997;-89
2024/04/21 01:31:16;;;;;;;0.10;0.10;;;3.60;99.90;;;;;;5094481;27;20026;-88
2024/04/21 01:33:42;;;;;;;0.10;0.10;;;3.90;99.90;;;;;;5126081;27;20089;-88
2024/04/21 01:36:08;;;;;;;0.10;0.10;;;;;;;;;;5092387;27;19998;-88
2024/04/21 01:38:33;;;;;;;0.00;0.00;;;3.60;99.90;;;;;;5101206;27;20061;-88
2024/04/21 01:40:59;;;;;;;0.10;0.10;;;3.40;99.90;;;;;;5091277;27;19998;-89
2024/04/21 01:43:24;;;;;;;0.05;0.05;;;3.20;99.90;;;;;;5092641;27;20043;-89
2024/04/21 01:45:52;;;;;;;0.10;0.10;;;3.20;99.90;;;;;;5098148;28;20021;-88
2024/04/21 01:48:18;;;;;;;0.05;0.05;;;;;;;;;;5093624;27;20014;-90
2024/04/21 01:50:46;;;;;;;0.10;0.10;;;3.00;99.90;;;;;;5092319;27;20082;-89
2024/04/21 01:53:12;;;;;;;0.00;0.00;;;;;;;;;;5100283;27;20046;-90
2024/04/21 01:55:37;;;;;;;0.05;0.05;;;3.00;99.90;;;;;;5103448;27;20473;-88
2024/04/21 01:58:03;;;;;;;0.05;0.05;;;2.90;99.90;;;;;;5082753;27;20006;-88
2024/04/21 02:00:29;;;;;;;0.10;0.10;;;;;;;;;;5091403;27;20010;-89
2024/04/21 02:02:55;;;;;;;0.00;0.00;;;;;;;;;;5101068;27;20002;-89
2024/04/21 02:05:21;;;;;;;0.00;0.00;;;;;;;;;;5103816;27;20009;-89
2024/04/21 02:07:46;;;;;;;0.10;0.10;;;2.90;99.90;;;;;;5098201;27;20011;-88
2024/04/21 02:10:12;;;;;;;0.00;0.00;;;;;;;;;;5090292;27;20010;-88
2024/04/21 02:12:48;;;;;;;0.10;0.10;;;;;;;;;;5126431;27;20018;-89
2024/04/21 02:15:14;;;;;;;0.00;0.00;;;;;;;;;;5107688;27;20009;-87
2024/04/21 02:17:41;;;;;;;0.10;0.10;;;;;;;;;;5109543;27;20021;-87
2024/04/21 02:20:10;;;;;;;0.00;0.00;;;2.80;99.90;;;;;;5094264;27;20029;-88
2024/04/21 02:22:36;;;;;;;0.10;0.10;;;;;;;;;;5102167;27;20498;-88
2024/04/21 02:25:01;;;;;;;0.10;0.10;;;;;;;;;;5087878;27;20015;-89
2024/04/21 02:27:28;;;;;;;0.10;0.10;;;;;;;;;;5117626;27;20005;-89
2024/04/21 18:06:36;;;;;;;0.00;0.00;;;9.10;84.50;;;;;;5073364;28;20515;-88
2024/04/21 18:09:02;;;;;;;0.00;0.00;;;;;;;;;;5093539;27;20006;-89
2024/04/21 18:11:29;;;;;;;0.00;0.00;;;;;;;;;;5078565;28;20007;-90
2024/04/21 18:13:55;;;;;;;0.00;0.00;;;;;;;;;;5063862;28;20006;-91
2024/04/21 18:16:21;;;;;;;0.00;0.00;;;;;;;;;;5074181;27;20010;-91
2024/04/21 18:18:47;;;;;;;0.00;0.00;;;;;;;;;;5058041;28;20088;-88
2024/04/21 18:21:13;;;;;;;0.05;0.05;;;;;;;;;;5053616;28;20018;-92
2024/04/21 18:23:39;;;;;;;0.00;0.00;;;;;;;;;;5056409;28;19999;-92
2024/04/21 18:26:05;;;;;;;0.00;0.00;;;;;;;;;;5068614;28;20010;-92
2024/04/21 18:28:31;;;;;;;0.10;0.10;;;;;;;;;;5062241;28;20003;-87
2024/04/21 18:30:57;;;;;;;0.10;0.10;;;;;;;;;;5082473;27;20017;-89
2024/04/21 18:33:23;;;;;;;0.00;0.00;;;;;;;;;;5064237;28;20011;-91
2024/04/21 18:35:52;;;;;;;0.00;0.00;;;;;;;;;;5052273;28;20554;-92
2024/04/21 18:38:18;;;;;;;;;;;7.90;93.90;;;;;;5061364;28;20067;-89
2024/04/21 18:40:44;;;;;;;0.10;0.10;;;;;;;;;;5069433;28;20376;-90
2024/04/21 18:43:10;;;;;;;0.10;0.10;;;;;;;;;;5061357;28;20013;-90
2024/04/21 18:45:41;;;;;;;0.08;0.08;;;7.50;94.50;;;;;;5060023;28;20003;-88
2024/04/21 18:48:11;;;;;;;0.10;0.10;;;7.30;95.90;;;;;;5046190;28;20003;-91
2024/04/21 18:50:44;;;;;;;0.08;0.08;;;7.20;96.30;;;;;;5060248;28;20059;-90
2024/04/21 18:53:15;;;;;;;0.00;0.00;;;7.10;96.40;;;;;;5071276;28;20069;-91
2024/04/21 18:55:41;;;;;;;0.10;0.10;;;;;;;;;;5061242;28;20019;-90
2024/04/21 18:58:07;;;;;;;0.10;0.10;;;;;;;;;;5066571;28;20007;-88
2024/04/21 19:00:35;;;;;;;0.10;0.10;;;;;;;;;;5059094;28;20428;-90
2024/04/21 19:03:01;;;;;;;0.10;0.10;;;;;;;;;;5057674;28;19998;-89
2024/04/21 19:05:33;;;;;;;0.10;0.10;;;6.70;98.70;;;;;;5055998;28;20060;-91
2024/04/21 19:07:59;;;;;;;0.10;0.10;;;;;;;;;;5060043;28;20009;-90
2024/04/21 19:10:26;;;;;;;0.10;0.10;;;;;;;;;;5049991;28;20010;-88
2024/04/21 19:12:52;;;;;;;0.10;0.10;;;;;;;;;;5050050;28;20002;-92
2024/04/21 19:15:18;;;;;;;0.10;0.10;;;;;;;;;;5063513;28;20357;-90
2024/04/21 19:17:44;;;;;;;0.10;0.10;;;;;;;;;;5051056;28;20014;-91
2024/04/21 19:20:11;;;;;;;0.10;0.10;;;;;;;;;;5051642;28;20038;-90
2024/04/21 19:22:37;;;;;;;0.10;0.10;;;;;;;;;;5052654;28;20014;-90
2024/04/21 19:25:03;;;;;;;0.10;0.10;;;;;;;;;;5083667;28;20025;-92
2024/04/21 19:27:29;;;;;;;0.10;0.10;;;;;;;;;;5057494;28;20051;-92
2024/04/21 19:29:56;;;;;;;0.10;0.10;;;;;;;;;;5053190;28;20022;-92
2024/04/21 19:32:22;;;;;;;0.10;0.10;;;;;;;;;;5054392;28;20033;-93
2024/04/21 19:34:48;;;;;;;0.00;0.00;;;;;;;;;;5045218;28;20105;-96
2024/04/21 19:37:15;;;;;;;0.10;0.10;;;;;;;;;;5071762;28;20006;-91
2024/04/21 19:39:41;;;;;;;0.00;0.00;;;;;;;;;;5054351;28;20011;-94
2024/04/21 19:42:10;;;;;;;0.08;0.08;;;;;;;;;;5060813;28;20003;-93
2024/04/21 19:44:36;;;;;;;0.10;0.10;;;;;;;;;;5059851;28;20021;-92
2024/04/21 19:47:02;;;;;;;0.03;0.03;;;;;;;;;;5059985;28;20042;-96
2024/04/21 19:49:28;;;;;;;0.10;0.10;;;;;;;;;;5087538;28;20002;-94
2024/04/21 19:51:55;;;;;;;0.10;0.10;;;;;;;;;;5059951;28;20050;-91
2024/04/21 19:54:21;;;;;;;0.10;0.10;;;;;;;;;;5063461;28;20018;-96
2024/04/21 19:56:47;;;;;;;0.10;0.10;;;;;;;;;;5056868;28;20014;-93
2024/04/21 19:59:13;;;;;;;0.10;0.10;;;;;;;;;;5065388;28;20010;-93
2024/04/21 20:01:42;;;;;;;0.10;0.10;;;;;;;;;;5091459;28;20002;-90
2024/04/21 20:04:11;;;;;;;0.10;0.10;;;;;;;;;;5075851;28;20025;-92
2024/04/21 20:06:37;;;;;;;0.10;0.10;;;;;;;;;;5058429;28;20073;-94
2024/04/21 20:09:03;;;;;;;0.10;0.10;;;;;;;;;;5066916;28;20006;-92
2024/04/21 20:11:29;;;;;;;0.10;0.10;;;;;;;;;;5062835;28;20022;-95
2024/04/21 20:19:04;;;;;;;0.10;0.10;;;;;;;;;;5090128;28;20051;-94
2024/04/21 20:21:30;;;;;;;0.00;0.00;;;7.00;96.30;;;;;;5079997;28;20018;-92
2024/04/21 20:23:57;;;;;;;0.10;0.10;;;;;;;;;;5068391;28;20021;-95
2024/04/21 20:26:23;;;;;;;0.10;0.10;;;;;;;;;;5065042;28;20399;-92
2024/04/21 20:28:49;;;;;;;0.10;0.10;;;;;;;;;;5066222;28;20050;-92
2024/04/21 20:31:20;;;;;;;0.10;0.10;;;6.90;96.30;;;;;;5083750;22;20010;-95
2024/04/21 20:33:53;;;;;;;0.10;0.10;;;;;;;;;;5096461;28;20002;-93
2024/04/21 20:36:23;;;;;;;0.10;0.10;;;6.60;97.20;;;;;;5094941;28;20006;-93
2024/04/21 20:38:54;;;;;;;0.10;0.10;;;6.50;97.40;;;;;;5080318;27;20018;-93
2024/04/21 20:41:21;;;;;;;0.00;0.00;;;;;;;;;;5076296;27;20006;-93
2024/04/21 20:43:48;;;;;;;0.10;0.10;;;6.40;98.60;;;;;;5091981;28;20472;-94
2024/04/21 20:46:21;;;;;;;0.10;0.10;;;;;;;;;;5057714;28;20006;-93
2024/04/21 20:48:50;;;;;;;0.10;0.10;;;;;;;;;;5072780;28;20011;-93
2024/04/21 20:51:24;;;;;;;0.10;0.10;;;;;;;;;;5060204;28;20018;-94
2024/04/21 20:54:03;;;;;;;0.10;0.10;;;;;;;;;;5088148;28;20013;-93
2024/04/21 20:56:32;;;;;;;0.10;0.10;;;;;;;;;;5056213;28;20012;-94
2024/04/21 20:58:59;;;;;;;0.10;0.10;;;;;;;;;;5111042;27;19999;-93
2024/04/21 21:01:33;;;;;;;0.00;0.00;;;5.70;99.90;;;;;;5070193;28;20017;-93
2024/04/21 21:04:12;;;;;;;0.10;0.10;;;;;;;;;;5072041;28;19999;-93
2024/04/21 21:06:38;;;;;;;0.00;0.00;;;;;;;;;;5115220;27;20018;-93
2024/04/21 21:09:29;;;;;;;0.10;0.10;;;5.70;99.90;;;;;;5070401;28;20002;-93
2024/04/21 21:12:04;;;;;;;0.10;0.10;;;;;;;;;;5109072;28;20015;-95
2024/04/21 21:14:32;;;;;;;0.00;0.00;;;;;;;;;;5115972;27;20011;-93
2024/04/21 21:17:00;;;;;;;0.10;0.10;;;;;;;;;;5122787;27;20000;-93
2024/04/21 21:19:29;;;;;;;0.10;0.10;;;;;;;;;;5068571;28;20003;-93
2024/04/21 21:22:00;;;;;;;0.10;0.10;;;;;;;;;;5082611;28;20035;-93
2024/04/21 21:24:27;;;;;;;0.10;0.10;;;;;;;;;;5120086;28;20002;-93
2024/04/21 21:26:55;;;;;;;0.10;0.10;;;;;;;;;;5090821;28;20010;-94
2024/04/21 21:29:26;;;;;;;0.10;0.10;;;5.50;99.90;;;;;;5089427;28;20035;-93
2024/04/21 21:31:58;;;;;;;0.10;0.10;;;5.60;99.90;;;;;;5076556;28;20011;-93
2024/04/21 21:34:33;;;;;;;0.08;0.08;;;;;;;;;;5074619;28;20011;-93
2024/04/21 21:37:02;;;;;;;0.00;0.00;;;5.60;99.90;;;;;;5065488;28;20011;-93
2024/04/21 21:39:29;;;;;;;0.10;0.10;;;;;;;;;;5064119;28;20017;-93
2024/04/21 21:42:01;;;;;;;0.10;0.10;;;;;;;;;;5066161;28;20007;-93
2024/04/21 21:44:27;;;;;;;0.10;0.10;;;;;;;;;;5123749;27;20011;-93
2024/04/21 21:46:56;;;;;;;0.05;0.05;;;5.50;99.90;;;;;;5126341;27;20054;-93
2024/04/21 21:49:25;;;;;;;0.10;0.10;;;;;;;;;;5072559;28;20640;-93
2024/04/21 21:51:57;;;;;;;0.10;0.10;;;5.60;99.90;;;;;;5110384;27;20070;-92
2024/04/21 21:54:29;;;;;;;0.10;0.10;;;;;;;;;;5081669;28;20018;-93
2024/04/21 21:57:03;;;;;;;0.10;0.10;;;;;;;;;;5068712;28;20060;-93
2024/04/21 21:59:36;;;;;;;0.10;0.10;;;5.60;99.90;;;;;;5086936;28;20472;-93
2024/04/21 22:02:34;;;;;;;;;;;;;;;;;;;;;
2024/04/21 22:59:29;;;;;;;0.00;0.00;;;;;;;;;;5097007;27;21153;-92
2024/04/21 23:01:55;;;;;;;0.10;0.10;;;;;;;;;;5078218;27;20022;-91
2024/04/21 23:04:21;;;;;;;0.10;0.10;;;;;;;;;;5100595;27;20063;-92
2024/04/21 23:06:47;;;;;;;0.10;0.10;;;;;;;;;;5090628;27;20021;-92
2024/04/21 23:09:13;;;;;;;0.10;0.10;;;;;;;;;;5108492;27;20020;-92
2024/04/21 23:11:39;;;;;;;0.10;0.10;;;;;;;;;;5106307;27;20019;-93
2024/04/21 23:14:06;;;;;;;0.10;0.10;;;;;;;;;;5067731;27;20078;-92
2024/04/21 23:16:33;;;;;;;0.10;0.10;;;;;;;;;;5106249;27;20013;-92
2024/04/21 23:19:01;;;;;;;0.10;0.10;;;;;;;;;;5115367;27;20001;-92
2024/04/21 23:21:29;;;;;;;0.10;0.10;;;;;;;;;;5086551;28;20005;-92
2024/04/21 23:23:57;;;;;;;0.10;0.10;;;;;;;;;;5109520;27;20027;-92
2024/04/21 23:26:23;;;;;;;0.00;0.00;;;;;;;;;;5106054;27;20002;-93
2024/04/21 23:28:50;;;;;;;0.10;0.10;;;;;;;;;;5121965;27;20024;-91
2024/04/21 23:31:20;;;;;;;0.10;0.10;;;;;;;;;;5109272;27;20022;-93
2024/04/21 23:33:46;;;;;;;0.10;0.10;;;;;;;;;;5109081;27;21773;-92
2024/04/21 23:36:13;;;;;;;0.10;0.10;;;;;;;;;;5092531;27;20011;-92
2024/04/21 23:38:39;;;;;;;0.10;0.10;;;;;;;;;;5120303;27;20010;-92
2024/04/21 23:41:05;;;;;;;0.00;0.00;;;;;;;;;;5107331;27;20062;-91
2024/04/21 23:43:32;;;;;;;0.00;0.00;;;;;;;;;;5109773;27;20031;-91
2024/04/21 23:45:58;;;;;;;0.10;0.10;;;;;;;;;;5114982;27;20001;-93
2024/04/21 23:48:25;;;;;;;0.00;0.00;;;;;;;;;;5114485;27;20012;-93
2024/04/21 23:50:51;;;;;;;0.00;0.00;;;;;;;;;;5108075;27;20014;-92
2024/04/21 23:53:17;;;;;;;0.10;0.10;;;;;;;;;;5113274;27;20007;-92
2024/04/21 23:55:44;;;;;;;0.00;0.00;;;;;;;;;;5106228;27;20001;-92
2024/04/21 23:58:12;;;;;;;0.10;0.10;;;;;;;;;;5112431;27;20033;-92
